Time;durP1;ratioP1;P1;durP2;ratioP2;P2;SDS_P1;SDS_P2;PMS_P1;PMS_P2;Temp;Humidity;BMP_temperature;BMP_pressure;BME280_temperature;BME280_humidity;BME280_pressure;Samples;Min_cycle;Max_cycle;Signal;HPM_P1;HPM_P2
2021/11/30 00:01:53;;;;;;;5.00;4.50;;;7.80;62.20;;;;;;4965390;28;20441;-49
2021/11/30 00:04:18;;;;;;;5.30;4.80;;;7.90;62.20;;;;;;4971848;28;20447;-49
2021/11/30 00:06:46;;;;;;;5.07;4.57;;;7.80;62.30;;;;;;4963629;28;20446;-49
2021/11/30 00:12:13;;;;;;;7.57;5.83;;;7.80;62.50;;;;;;4958435;28;20789;-49
2021/11/30 00:14:41;;;;;;;5.90;4.73;;;7.80;62.30;;;;;;4967643;28;20446;-50
2021/11/30 00:17:08;;;;;;;9.20;5.03;;;7.80;62.40;;;;;;4967966;28;20450;-51
2021/11/30 00:19:34;;;;;;;5.53;5.03;;;7.60;62.70;;;;;;4968944;28;20458;-49
2021/11/30 00:22:01;;;;;;;6.67;4.93;;;7.60;63.20;;;;;;4967470;28;20442;-48
2021/11/30 00:24:30;;;;;;;8.37;5.87;;;7.70;63.20;;;;;;4963648;28;20451;-49
2021/11/30 00:26:57;;;;;;;5.90;5.00;;;7.70;63.30;;;;;;4967683;28;20501;-48
2021/11/30 00:29:23;;;;;;;5.93;5.13;;;7.60;63.10;;;;;;4965545;28;20486;-51
2021/11/30 00:31:49;;;;;;;6.47;5.87;;;7.30;63.30;;;;;;4967098;28;20601;-53
2021/11/30 00:34:15;;;;;;;5.63;4.37;;;7.00;64.20;;;;;;4963088;28;20200;-50
2021/11/30 00:36:40;;;;;;;6.47;5.67;;;6.90;65.20;;;;;;4966952;28;21039;-51
2021/11/30 00:39:06;;;;;;;5.43;4.57;;;6.80;65.70;;;;;;4966949;28;20284;-51
2021/11/30 00:41:32;;;;;;;6.90;4.93;;;6.80;65.90;;;;;;4968656;28;20199;-50
2021/11/30 00:43:58;;;;;;;6.93;4.93;;;6.80;66.00;;;;;;4969987;28;20202;-52
2021/11/30 00:46:34;;;;;;;5.60;5.07;;;7.00;66.00;;;;;;4964056;28;20446;-52
2021/11/30 00:49:04;;;;;;;4.77;4.27;;;6.90;65.80;;;;;;4968118;28;20235;-49
2021/11/30 00:51:32;;;;;;;4.30;3.90;;;6.80;66.00;;;;;;4964716;28;20533;-52
2021/11/30 00:53:58;;;;;;;4.67;3.90;;;6.70;65.90;;;;;;4965219;28;20950;-50
2021/11/30 00:56:24;;;;;;;5.03;4.50;;;6.60;66.40;;;;;;4965577;28;20458;-52
2021/11/30 00:58:50;;;;;;;4.80;4.10;;;6.60;66.60;;;;;;4962049;28;20663;-52
2021/11/30 01:01:16;;;;;;;3.77;3.47;;;6.40;67.00;;;;;;4962646;28;20455;-50
2021/11/30 01:03:42;;;;;;;4.40;4.00;;;6.50;67.40;;;;;;4969439;28;20530;-51
2021/11/30 01:06:08;;;;;;;3.90;3.50;;;6.50;67.30;;;;;;4963262;28;20509;-52
2021/11/30 01:08:34;;;;;;;4.40;3.93;;;6.60;67.00;;;;;;4970501;28;20845;-51
2021/11/30 01:11:02;;;;;;;4.23;3.83;;;6.80;66.60;;;;;;4967284;28;20449;-49
2021/11/30 01:13:30;;;;;;;5.37;3.47;;;6.70;66.40;;;;;;4971847;28;20203;-52
2021/11/30 01:15:56;;;;;;;5.10;3.50;;;6.60;66.30;;;;;;4966353;28;20469;-52
2021/11/30 01:18:21;;;;;;;4.40;4.00;;;6.60;66.20;;;;;;4963146;28;20455;-52
2021/11/30 01:20:47;;;;;;;4.27;3.70;;;6.80;65.90;;;;;;4964807;28;20445;-52
2021/11/30 01:23:13;;;;;;;4.23;3.83;;;6.80;65.40;;;;;;4964340;28;21074;-48
2021/11/30 01:25:39;;;;;;;4.63;3.57;;;6.80;65.40;;;;;;4966570;28;20203;-52
2021/11/30 01:28:05;;;;;;;4.17;3.50;;;6.80;65.40;;;;;;4967256;28;20199;-53
2021/11/30 01:30:31;;;;;;;5.27;3.83;;;6.90;64.80;;;;;;4963548;28;20442;-51
2021/11/30 01:32:57;;;;;;;9.17;4.90;;;6.90;64.90;;;;;;4968786;28;20808;-50
2021/11/30 01:35:22;;;;;;;4.00;3.60;;;6.80;64.60;;;;;;4968340;28;20504;-49
2021/11/30 01:37:49;;;;;;;4.73;4.20;;;6.70;64.80;;;;;;4963015;28;20215;-49
2021/11/30 01:40:18;;;;;;;5.23;4.50;;;6.80;65.30;;;;;;4962837;28;20195;-50
2021/11/30 01:42:46;;;;;;;7.13;4.40;;;6.80;64.60;;;;;;4964430;28;20454;-49
2021/11/30 01:45:29;;;;;;;4.53;4.13;;;6.90;64.30;;;;;;4961850;28;20535;-50
2021/11/30 01:50:32;;;;;;;3.80;3.50;;;6.90;63.90;;;;;;4960323;28;21012;-48
2021/11/30 01:52:57;;;;;;;4.70;3.90;;;6.70;63.50;;;;;;4967076;28;21331;-50
2021/11/30 01:55:23;;;;;;;4.03;3.63;;;6.90;64.00;;;;;;4964647;28;20491;-52
2021/11/30 01:57:52;;;;;;;6.33;3.60;;;7.00;63.90;;;;;;4964206;28;20199;-53
2021/11/30 02:00:19;;;;;;;9.20;3.77;;;7.00;63.20;;;;;;4963730;28;20503;-49
2021/11/30 02:02:45;;;;;;;5.00;4.30;;;6.90;63.00;;;;;;4961684;28;20439;-48
2021/11/30 02:05:12;;;;;;;6.63;4.77;;;6.80;63.20;;;;;;4961619;28;20446;-48
2021/11/30 02:07:39;;;;;;;4.57;4.17;;;6.70;63.80;;;;;;4962615;28;20439;-48
2021/11/30 02:10:08;;;;;;;5.20;4.40;;;6.80;63.90;;;;;;4960277;28;20501;-51
2021/11/30 02:12:35;;;;;;;8.23;3.80;;;6.80;63.50;;;;;;4963234;28;20453;-48
2021/11/30 02:15:02;;;;;;;5.30;4.30;;;6.90;63.30;;;;;;4960394;28;20461;-48
2021/11/30 02:17:27;;;;;;;6.23;4.73;;;6.90;63.30;;;;;;4960373;28;20447;-53
2021/11/30 02:19:57;;;;;;;7.77;4.17;;;7.00;62.80;;;;;;4966892;28;20439;-50
2021/11/30 02:22:23;;;;;;;4.73;3.70;;;7.10;62.50;;;;;;4961571;28;20454;-49
2021/11/30 02:24:50;;;;;;;5.40;4.10;;;7.10;61.80;;;;;;4959272;28;20888;-48
2021/11/30 02:27:15;;;;;;;5.83;3.70;;;7.20;61.70;;;;;;4963241;28;20549;-50
2021/11/30 02:29:41;;;;;;;4.33;3.57;;;7.20;61.60;;;;;;4961984;28;20557;-49
2021/11/30 02:32:08;;;;;;;4.70;3.60;;;7.20;61.50;;;;;;4961405;28;20563;-50
2021/11/30 02:34:34;;;;;;;5.57;3.87;;;7.30;61.80;;;;;;4960286;28;20337;-49
2021/11/30 02:37:05;;;;;;;3.97;2.67;;;7.20;61.10;;;;;;4963576;28;20522;-51
2021/11/30 02:39:33;;;;;;;5.43;3.20;;;7.20;60.90;;;;;;4959908;28;20610;-49
2021/11/30 02:42:01;;;;;;;3.43;3.13;;;7.30;60.90;;;;;;4965488;28;20443;-48
2021/11/30 02:44:27;;;;;;;4.90;3.40;;;7.30;60.40;;;;;;4963755;28;21032;-52
2021/11/30 02:47:01;;;;;;;5.80;2.80;;;7.10;60.40;;;;;;4961984;28;20443;-48
2021/11/30 02:49:31;;;;;;;5.10;2.77;;;7.20;60.80;;;;;;4963825;28;20610;-48
2021/11/30 02:52:05;;;;;;;4.80;2.90;;;7.20;60.40;;;;;;4962296;28;20441;-49
2021/11/30 02:54:32;;;;;;;3.13;2.33;;;7.20;60.50;;;;;;4965695;28;20515;-48
2021/11/30 02:57:02;;;;;;;3.83;3.30;;;7.10;60.30;;;;;;4966092;28;20449;-48
2021/11/30 02:59:31;;;;;;;3.67;3.20;;;7.20;60.50;;;;;;4966245;28;20500;-48
2021/11/30 03:02:11;;;;;;;3.80;2.30;;;7.40;59.80;;;;;;4966236;28;20454;-48
2021/11/30 03:04:38;;;;;;;4.33;3.00;;;7.20;59.60;;;;;;4967706;28;22056;-49
2021/11/30 03:07:04;;;;;;;7.37;2.43;;;7.40;59.50;;;;;;4964137;28;20451;-49
2021/11/30 03:09:29;;;;;;;3.53;2.43;;;7.50;59.20;;;;;;4964464;28;21024;-48
2021/11/30 03:11:56;;;;;;;2.80;2.07;;;7.60;59.20;;;;;;4961670;28;20501;-49
2021/11/30 03:14:27;;;;;;;10.63;3.40;;;7.50;58.50;;;;;;4961611;28;20214;-48
2021/11/30 03:16:54;;;;;;;7.83;2.40;;;7.50;58.70;;;;;;4965112;28;20438;-48
2021/11/30 03:19:21;;;;;;;2.30;2.00;;;7.60;59.10;;;;;;4962519;28;20450;-48
2021/11/30 03:21:47;;;;;;;2.70;2.00;;;7.60;58.10;;;;;;4966334;28;20442;-49
2021/11/30 03:24:13;;;;;;;2.20;2.00;;;7.50;57.90;;;;;;4966983;28;20541;-48
2021/11/30 03:26:39;;;;;;;4.77;2.17;;;7.50;58.00;;;;;;4961638;28;20435;-48
2021/11/30 03:29:04;;;;;;;3.17;2.37;;;7.60;57.90;;;;;;4961037;28;20497;-48
2021/11/30 03:34:07;;;;;;;2.60;2.00;;;7.60;57.50;;;;;;4967426;28;20666;-51
2021/11/30 03:36:34;;;;;;;4.57;2.20;;;7.50;58.10;;;;;;4966008;28;20502;-48
2021/11/30 03:39:04;;;;;;;2.50;2.10;;;7.30;57.70;;;;;;4964171;28;20812;-50
2021/11/30 03:41:31;;;;;;;6.70;3.20;;;7.40;58.00;;;;;;4964617;28;20851;-51
2021/11/30 03:43:58;;;;;;;7.67;3.13;;;7.30;57.90;;;;;;4969180;28;20565;-48
2021/11/30 03:46:23;;;;;;;4.77;2.80;;;7.40;57.90;;;;;;4971536;28;20537;-51
2021/11/30 03:48:49;;;;;;;8.73;3.37;;;7.40;57.80;;;;;;4973537;28;20855;-49
2021/11/30 03:51:15;;;;;;;5.53;2.87;;;7.40;57.40;;;;;;4969016;28;20199;-50
2021/11/30 03:53:40;;;;;;;5.47;2.80;;;7.20;57.70;;;;;;4968951;28;20187;-48
2021/11/30 03:56:06;;;;;;;5.80;2.50;;;6.90;58.00;;;;;;4969813;28;21520;-52
2021/11/30 03:58:32;;;;;;;3.43;2.00;;;6.70;58.30;;;;;;4975554;28;20195;-48
2021/11/30 04:00:58;;;;;;;1.73;1.60;;;6.80;58.50;;;;;;4972099;28;20203;-49
2021/11/30 04:03:26;;;;;;;1.93;1.37;;;6.70;58.10;;;;;;4966152;28;20678;-51
2021/11/30 04:05:52;;;;;;;3.73;1.70;;;6.50;57.90;;;;;;4970999;28;20690;-50
2021/11/30 04:08:18;;;;;;;2.70;1.43;;;6.10;57.90;;;;;;4973040;28;20470;-51
2021/11/30 04:10:43;;;;;;;2.00;1.23;;;5.90;58.30;;;;;;4969310;28;20203;-48
2021/11/30 04:13:09;;;;;;;1.37;1.27;;;6.10;58.50;;;;;;4968447;28;20199;-47
2021/11/30 04:15:35;;;;;;;3.43;1.70;;;6.20;58.70;;;;;;4967168;28;20681;-49
2021/11/30 04:18:00;;;;;;;6.03;1.47;;;6.20;58.30;;;;;;4970137;28;20202;-49
2021/11/30 04:20:26;;;;;;;2.47;1.50;;;6.20;58.80;;;;;;4968385;28;20195;-48
2021/11/30 04:22:52;;;;;;;2.30;1.77;;;6.20;58.70;;;;;;4971894;28;20195;-49
2021/11/30 04:25:18;;;;;;;1.73;1.63;;;6.00;59.00;;;;;;4969101;28;20195;-47
2021/11/30 04:27:43;;;;;;;3.83;2.13;;;6.00;59.30;;;;;;4967364;28;20970;-49
2021/11/30 04:30:10;;;;;;;2.73;1.90;;;5.90;59.80;;;;;;4968379;28;20234;-49
2021/11/30 04:32:36;;;;;;;3.90;2.03;;;6.00;60.20;;;;;;4969155;28;20203;-48
2021/11/30 04:35:03;;;;;;;2.83;1.77;;;6.00;60.00;;;;;;4969373;28;20870;-48
2021/11/30 04:37:28;;;;;;;2.13;1.93;;;6.10;60.20;;;;;;4969265;28;20457;-48
2021/11/30 04:39:54;;;;;;;2.77;1.73;;;6.00;59.80;;;;;;4968055;28;20819;-48
2021/11/30 04:42:26;;;;;;;2.90;1.97;;;5.90;60.10;;;;;;4971556;28;20669;-50
2021/11/30 04:45:02;;;;;;;2.43;2.03;;;5.80;60.70;;;;;;4965292;28;20296;-50
2021/11/30 04:47:31;;;;;;;5.07;2.43;;;5.80;60.70;;;;;;4966971;28;20450;-48
2021/11/30 04:50:03;;;;;;;2.57;1.97;;;5.70;61.00;;;;;;4964918;28;21241;-50
2021/11/30 04:52:30;;;;;;;3.40;2.00;;;5.80;61.00;;;;;;4969815;28;20454;-47
2021/11/30 04:54:56;;;;;;;2.17;2.00;;;5.80;60.80;;;;;;4972955;28;20561;-51
2021/11/30 04:57:22;;;;;;;3.10;2.50;;;5.70;60.80;;;;;;4972163;28;20448;-48
2021/11/30 04:59:48;;;;;;;4.03;2.27;;;5.80;60.90;;;;;;4970885;28;20804;-47
2021/11/30 05:02:14;;;;;;;2.27;2.03;;;5.80;61.00;;;;;;4968396;28;20453;-48
2021/11/30 05:04:40;;;;;;;2.83;2.53;;;5.60;60.80;;;;;;4965144;28;20577;-47
2021/11/30 05:07:06;;;;;;;3.57;2.60;;;5.60;61.10;;;;;;4969374;28;20434;-47
2021/11/30 05:09:32;;;;;;;4.23;2.33;;;5.80;61.20;;;;;;4960586;28;20231;-48
2021/11/30 05:11:58;;;;;;;2.10;1.90;;;5.80;60.90;;;;;;4972599;28;20207;-49
2021/11/30 05:14:24;;;;;;;2.30;2.10;;;5.90;60.50;;;;;;4968619;28;20929;-48
2021/11/30 05:16:49;;;;;;;2.97;2.77;;;5.80;60.20;;;;;;4972038;28;20200;-48
2021/11/30 05:19:15;;;;;;;3.07;1.80;;;5.70;60.30;;;;;;4972323;28;20200;-47
2021/11/30 05:21:41;;;;;;;3.90;2.17;;;5.60;60.70;;;;;;4973140;28;20613;-51
2021/11/30 05:24:09;;;;;;;3.93;2.00;;;5.50;60.80;;;;;;4964484;28;20222;-48
2021/11/30 05:26:35;;;;;;;2.70;2.50;;;5.40;61.50;;;;;;4970314;28;20219;-49
2021/11/30 05:29:02;;;;;;;2.70;2.50;;;5.50;61.60;;;;;;4960659;28;20491;-48
2021/11/30 05:31:27;;;;;;;2.90;2.00;;;5.70;61.30;;;;;;4963361;28;20438;-54
2021/11/30 05:33:53;;;;;;;2.90;2.13;;;5.80;61.00;;;;;;4970176;28;20946;-48
2021/11/30 05:36:20;;;;;;;2.40;2.20;;;5.70;60.80;;;;;;4967448;28;20191;-48
2021/11/30 05:38:46;;;;;;;2.70;2.20;;;5.70;60.50;;;;;;4968256;28;20195;-50
2021/11/30 05:41:12;;;;;;;3.30;2.40;;;5.80;60.90;;;;;;4968421;28;20977;-48
2021/11/30 05:43:37;;;;;;;2.27;1.93;;;5.80;60.80;;;;;;4971322;28;20560;-50
2021/11/30 05:46:03;;;;;;;2.40;2.03;;;5.70;60.50;;;;;;4963875;28;20279;-50
2021/11/30 05:48:30;;;;;;;4.47;2.30;;;5.60;61.30;;;;;;4965015;28;20254;-48
2021/11/30 05:50:56;;;;;;;2.83;2.00;;;5.80;61.30;;;;;;4970227;28;20195;-48
2021/11/30 05:53:22;;;;;;;2.93;2.20;;;5.80;60.70;;;;;;4966952;28;20446;-50
2021/11/30 05:55:56;;;;;;;4.67;2.93;;;5.80;61.20;;;;;;4971319;28;20517;-50
2021/11/30 05:58:22;;;;;;;3.57;3.27;;;5.60;61.70;;;;;;4970621;28;20443;-50
2021/11/30 06:00:48;;;;;;;4.70;2.60;;;5.60;61.90;;;;;;4969714;28;20533;-49
2021/11/30 06:05:46;;;;;;;3.77;2.17;;;5.60;62.00;;;;;;4968241;28;20445;-49
2021/11/30 06:08:12;;;;;;;3.60;2.60;;;5.60;62.20;;;;;;4970581;28;20824;-49
2021/11/30 06:10:38;;;;;;;4.30;2.63;;;5.50;62.10;;;;;;4959290;28;20941;-49
2021/11/30 06:13:04;;;;;;;2.70;2.30;;;5.40;62.50;;;;;;4963447;28;20569;-51
2021/11/30 06:15:29;;;;;;;2.60;2.40;;;5.30;62.40;;;;;;4962061;28;20195;-50
2021/11/30 06:17:55;;;;;;;2.73;2.53;;;5.20;63.30;;;;;;4958766;28;20930;-48
2021/11/30 06:20:21;;;;;;;3.50;3.00;;;5.20;63.50;;;;;;4964745;28;20191;-49
2021/11/30 06:22:47;;;;;;;5.23;3.10;;;5.30;63.80;;;;;;4960285;28;20285;-53
2021/11/30 06:25:13;;;;;;;3.47;2.93;;;5.30;63.30;;;;;;4961733;28;20479;-49
2021/11/30 06:27:41;;;;;;;5.40;3.23;;;5.40;63.50;;;;;;4961150;28;20944;-49
2021/11/30 06:30:07;;;;;;;3.87;3.20;;;5.10;63.80;;;;;;4961998;28;20508;-48
2021/11/30 06:32:33;;;;;;;3.97;3.57;;;4.90;64.50;;;;;;4962868;28;20509;-49
2021/11/30 06:34:59;;;;;;;3.40;3.10;;;4.90;65.60;;;;;;4961803;28;20456;-48
2021/11/30 06:37:25;;;;;;;3.40;3.10;;;5.10;66.40;;;;;;4965091;28;20192;-48
2021/11/30 06:39:52;;;;;;;3.27;2.97;;;5.10;66.10;;;;;;4963816;28;20486;-48
2021/11/30 06:42:18;;;;;;;5.30;3.83;;;4.90;66.50;;;;;;4962990;28;20553;-49
2021/11/30 06:44:46;;;;;;;3.97;3.07;;;4.70;67.60;;;;;;4967070;28;20468;-48
2021/11/30 06:47:12;;;;;;;3.93;3.43;;;4.60;67.40;;;;;;4968659;28;20466;-49
2021/11/30 06:49:37;;;;;;;3.93;3.40;;;4.70;68.00;;;;;;4959866;28;20491;-48
2021/11/30 06:52:03;;;;;;;3.30;3.00;;;4.90;67.90;;;;;;4971389;28;20215;-53
2021/11/30 06:54:29;;;;;;;4.40;3.00;;;5.00;67.30;;;;;;4964579;28;20673;-53
2021/11/30 06:56:55;;;;;;;3.70;3.03;;;4.90;67.10;;;;;;4961566;28;20491;-50
2021/11/30 06:59:20;;;;;;;3.93;3.50;;;4.50;68.30;;;;;;4969353;28;20195;-49
2021/11/30 07:01:47;;;;;;;3.77;2.73;;;4.50;69.20;;;;;;4965245;28;20187;-52
2021/11/30 07:04:13;;;;;;;6.67;3.30;;;4.40;69.00;;;;;;4961571;28;20281;-53
2021/11/30 07:09:22;;;;;;;7.33;4.87;;;4.50;69.40;;;;;;4962401;28;20234;-48
2021/11/30 07:14:16;;;;;;;4.97;3.43;;;4.90;68.60;;;;;;4967742;28;20439;-50
2021/11/30 07:16:41;;;;;;;6.10;3.23;;;4.90;68.10;;;;;;4971095;28;20437;-51
2021/11/30 07:19:07;;;;;;;5.17;3.47;;;4.80;67.50;;;;;;4960856;28;20443;-51
2021/11/30 07:21:33;;;;;;;5.23;3.60;;;4.90;67.60;;;;;;4967599;28;20199;-53
2021/11/30 07:24:02;;;;;;;4.03;2.97;;;5.00;67.50;;;;;;4960775;28;20524;-51
2021/11/30 07:26:27;;;;;;;3.37;2.87;;;5.10;67.10;;;;;;4960775;28;20443;-49
2021/11/30 07:28:53;;;;;;;5.07;3.50;;;5.00;66.80;;;;;;4962490;28;20485;-48
2021/11/30 07:31:19;;;;;;;4.87;3.00;;;5.10;66.80;;;;;;4960874;28;20192;-48
2021/11/30 07:33:47;;;;;;;3.93;2.83;;;4.90;66.40;;;;;;4961736;28;20199;-50
2021/11/30 07:36:16;;;;;;;3.73;3.27;;;4.70;66.70;;;;;;4963805;28;20468;-51
2021/11/30 07:38:43;;;;;;;3.40;2.70;;;4.90;67.00;;;;;;4966279;28;20448;-54
2021/11/30 07:41:10;;;;;;;3.23;2.70;;;4.90;66.40;;;;;;4963644;28;20454;-49
2021/11/30 07:43:36;;;;;;;3.07;2.47;;;4.90;66.50;;;;;;4968846;28;20977;-49
2021/11/30 07:46:02;;;;;;;2.63;2.43;;;5.10;66.00;;;;;;4971759;28;20437;-49
2021/11/30 07:48:28;;;;;;;2.60;2.40;;;5.10;66.00;;;;;;4961457;28;20526;-49
2021/11/30 07:50:58;;;;;;;2.90;2.60;;;5.10;65.60;;;;;;4960807;28;20529;-50
2021/11/30 07:53:24;;;;;;;4.23;2.80;;;5.10;65.50;;;;;;4960262;28;20423;-51
2021/11/30 07:55:51;;;;;;;2.70;2.50;;;4.80;65.60;;;;;;4970443;28;20521;-49
2021/11/30 07:58:19;;;;;;;6.70;2.63;;;4.70;66.10;;;;;;4958219;28;20430;-51
2021/11/30 08:00:49;;;;;;;2.33;2.10;;;4.80;66.30;;;;;;4962933;28;20799;-49
2021/11/30 08:03:15;;;;;;;2.87;1.93;;;4.70;65.90;;;;;;4974856;28;20451;-49
2021/11/30 08:05:41;;;;;;;3.97;2.57;;;4.90;66.10;;;;;;4969301;28;20887;-49
2021/11/30 08:08:07;;;;;;;2.30;2.10;;;5.00;65.40;;;;;;4972003;28;20517;-49
2021/11/30 08:10:33;;;;;;;2.30;2.10;;;5.10;65.00;;;;;;4969465;28;20476;-48
2021/11/30 08:12:59;;;;;;;4.10;2.33;;;5.00;64.80;;;;;;4965414;28;20295;-48
2021/11/30 08:15:25;;;;;;;2.87;1.80;;;4.90;65.00;;;;;;4958808;28;20198;-49
2021/11/30 08:17:51;;;;;;;3.17;2.07;;;5.10;65.20;;;;;;4960323;28;20278;-48
2021/11/30 08:20:18;;;;;;;2.80;1.87;;;5.10;64.60;;;;;;4971372;28;20513;-49
2021/11/30 08:22:44;;;;;;;1.60;1.50;;;5.20;64.70;;;;;;4971433;28;20199;-49
2021/11/30 08:25:11;;;;;;;3.30;1.87;;;5.20;64.90;;;;;;4975439;28;20422;-49
2021/11/30 08:27:36;;;;;;;3.43;1.70;;;5.30;64.70;;;;;;4975564;28;20533;-49
2021/11/30 08:30:04;;;;;;;2.40;2.20;;;5.50;64.90;;;;;;4971153;28;20593;-49
2021/11/30 08:32:30;;;;;;;2.23;2.03;;;5.50;64.40;;;;;;4973457;28;20434;-48
2021/11/30 08:34:57;;;;;;;4.93;2.13;;;5.40;64.00;;;;;;4964467;28;20454;-49
2021/11/30 08:37:23;;;;;;;3.43;2.10;;;5.40;64.00;;;;;;4974668;28;20242;-49
2021/11/30 08:39:51;;;;;;;1.80;1.70;;;5.50;64.20;;;;;;4972299;28;20434;-48
2021/11/30 08:42:17;;;;;;;2.10;1.90;;;5.20;64.20;;;;;;4975726;28;20439;-48
2021/11/30 08:44:44;;;;;;;2.30;1.90;;;5.30;64.90;;;;;;4959587;28;20801;-48
2021/11/30 08:47:12;;;;;;;2.27;1.87;;;5.20;64.40;;;;;;4963889;28;20435;-48
2021/11/30 08:49:38;;;;;;;5.63;2.63;;;5.20;64.80;;;;;;4971297;28;20521;-50
2021/11/30 08:52:06;;;;;;;2.40;2.13;;;5.10;65.30;;;;;;4956632;28;20915;-48
2021/11/30 08:54:32;;;;;;;3.43;2.10;;;5.00;65.70;;;;;;4971259;28;20474;-49
2021/11/30 08:57:03;;;;;;;3.67;1.93;;;4.90;67.00;;;;;;4965235;28;20812;-54
2021/11/30 08:59:29;;;;;;;1.93;1.80;;;4.90;67.40;;;;;;4960669;28;20875;-54
2021/11/30 09:01:55;;;;;;;4.40;2.07;;;4.80;68.10;;;;;;4969952;28;20449;-54
2021/11/30 09:04:21;;;;;;;6.30;2.40;;;5.00;68.00;;;;;;4962656;28;20612;-53
2021/11/30 09:06:47;;;;;;;4.07;1.93;;;5.10;68.10;;;;;;4965290;28;20448;-50
2021/11/30 09:09:13;;;;;;;2.30;1.70;;;5.10;67.50;;;;;;4972975;28;20226;-52
2021/11/30 09:11:40;;;;;;;4.10;2.10;;;5.00;67.30;;;;;;4964068;28;20442;-50
2021/11/30 09:14:07;;;;;;;5.13;2.10;;;5.20;67.50;;;;;;4960237;28;20442;-50
2021/11/30 09:16:33;;;;;;;3.90;2.60;;;5.30;67.10;;;;;;4966729;28;20872;-53
2021/11/30 09:18:59;;;;;;;2.57;2.07;;;5.20;67.00;;;;;;4968299;28;20439;-50
2021/11/30 09:21:27;;;;;;;3.00;2.60;;;5.30;67.50;;;;;;4963238;28;20954;-52
2021/11/30 09:23:54;;;;;;;3.07;1.93;;;5.30;67.30;;;;;;4968820;28;20439;-54
2021/11/30 09:26:19;;;;;;;3.90;2.50;;;5.10;67.40;;;;;;4966630;28;20946;-51
2021/11/30 09:28:45;;;;;;;2.23;2.03;;;5.10;67.70;;;;;;4964258;28;20478;-49
2021/11/30 09:31:11;;;;;;;3.53;2.03;;;5.10;67.90;;;;;;4969302;28;20486;-50
2021/11/30 09:33:39;;;;;;;1.97;1.80;;;5.10;68.20;;;;;;4974428;28;20886;-52
2021/11/30 09:36:06;;;;;;;6.53;2.10;;;5.20;68.30;;;;;;4968309;28;20231;-50
2021/11/30 09:38:32;;;;;;;4.37;1.70;;;5.20;68.00;;;;;;4965754;28;20900;-52
2021/11/30 09:41:00;;;;;;;3.80;1.70;;;5.10;67.40;;;;;;4967383;28;20447;-50
2021/11/30 09:43:27;;;;;;;4.00;2.10;;;5.30;68.10;;;;;;4968369;28;20199;-49
2021/11/30 09:45:56;;;;;;;4.20;2.00;;;5.40;67.80;;;;;;4964807;28;20505;-48
2021/11/30 09:48:22;;;;;;;3.40;2.20;;;5.40;67.80;;;;;;4969894;28;20445;-48
2021/11/30 09:50:48;;;;;;;3.13;2.00;;;5.60;67.60;;;;;;4973522;28;20522;-52
2021/11/30 09:53:14;;;;;;;3.63;2.10;;;5.70;67.00;;;;;;4970757;28;20514;-50
2021/11/30 09:55:41;;;;;;;2.27;1.73;;;5.30;67.10;;;;;;4970819;28;20505;-49
2021/11/30 09:58:07;;;;;;;2.30;1.83;;;5.50;67.30;;;;;;4959898;28;20447;-49
2021/11/30 10:00:34;;;;;;;2.43;1.97;;;5.70;66.50;;;;;;4961558;28;20522;-49
2021/11/30 10:03:01;;;;;;;1.70;1.60;;;5.60;66.10;;;;;;4973621;28;20451;-50
2021/11/30 10:05:27;;;;;;;1.70;1.53;;;5.60;66.30;;;;;;4965320;28;20450;-49
2021/11/30 10:07:54;;;;;;;5.50;1.60;;;5.30;66.50;;;;;;4969142;28;20446;-50
2021/11/30 10:10:24;;;;;;;2.90;1.67;;;5.40;67.60;;;;;;4960953;28;20975;-48
2021/11/30 10:12:54;;;;;;;1.70;1.60;;;5.70;67.00;;;;;;4962761;28;20529;-49
2021/11/30 10:15:20;;;;;;;1.47;1.37;;;5.90;66.60;;;;;;4969503;28;20435;-52
2021/11/30 10:17:45;;;;;;;1.90;1.70;;;5.80;66.90;;;;;;4973770;28;20426;-51
2021/11/30 10:20:14;;;;;;;2.33;1.77;;;5.60;67.10;;;;;;4970732;28;20219;-52
2021/11/30 10:22:52;;;;;;;2.80;1.90;;;5.40;68.40;;;;;;4966581;28;20291;-52
2021/11/30 10:25:28;;;;;;;1.70;1.50;;;5.30;68.80;;;;;;4965478;28;20446;-53
2021/11/30 10:27:55;;;;;;;3.63;2.03;;;5.40;69.20;;;;;;4968382;28;20439;-49
2021/11/30 10:30:27;;;;;;;1.50;1.30;;;5.50;68.80;;;;;;4964333;28;20482;-49
2021/11/30 10:32:57;;;;;;;2.70;1.37;;;5.60;68.70;;;;;;4969694;28;20517;-51
2021/11/30 10:35:26;;;;;;;1.50;1.40;;;5.30;68.40;;;;;;4970986;28;20466;-49
2021/11/30 10:37:52;;;;;;;1.60;1.50;;;5.50;69.00;;;;;;4964977;28;20432;-50
2021/11/30 10:40:22;;;;;;;1.53;1.20;;;5.40;69.10;;;;;;4963289;28;20451;-49
2021/11/30 10:42:54;;;;;;;1.30;1.20;;;5.40;69.40;;;;;;4966156;28;20430;-51
2021/11/30 10:45:46;;;;;;;2.03;1.63;;;5.30;69.10;;;;;;4960794;28;20961;-50
2021/11/30 10:48:18;;;;;;;1.53;1.30;;;5.30;69.60;;;;;;4963825;28;20472;-50
2021/11/30 10:50:50;;;;;;;1.30;1.20;;;5.30;70.10;;;;;;4967935;28;20582;-51
2021/11/30 10:53:20;;;;;;;1.60;1.17;;;5.60;69.80;;;;;;4960455;28;20505;-50
2021/11/30 10:56:01;;;;;;;2.50;1.33;;;5.80;68.80;;;;;;4964353;28;20513;-51
2021/11/30 10:58:31;;;;;;;1.57;1.03;;;5.70;67.80;;;;;;4960337;28;20431;-50
2021/11/30 11:01:00;;;;;;;1.77;1.47;;;5.80;68.30;;;;;;4962032;28;20502;-51
2021/11/30 11:03:27;;;;;;;2.33;1.40;;;6.00;68.20;;;;;;4966122;28;20457;-50
2021/11/30 11:08:49;;;;;;;5.30;1.40;;;6.20;67.10;;;;;;4964186;28;20494;-50
2021/11/30 11:11:17;;;;;;;1.20;1.10;;;6.10;67.00;;;;;;4965159;28;20526;-50
2021/11/30 11:13:44;;;;;;;1.43;1.10;;;6.20;67.20;;;;;;4954181;28;20435;-51
2021/11/30 11:16:24;;;;;;;1.30;1.20;;;6.10;67.00;;;;;;4960976;28;20449;-51
2021/11/30 11:18:51;;;;;;;1.17;0.97;;;5.90;68.00;;;;;;4967538;28;20497;-54
2021/11/30 11:21:22;;;;;;;1.30;1.10;;;6.00;68.00;;;;;;4981503;28;20509;-51
2021/11/30 11:24:06;;;;;;;2.30;1.20;;;5.90;68.50;;;;;;4961603;28;20443;-51
2021/11/30 11:26:35;;;;;;;1.20;1.07;;;5.90;68.80;;;;;;4967064;28;20442;-52
2021/11/30 11:29:07;;;;;;;1.80;1.10;;;6.20;68.80;;;;;;4957820;28;20534;-52
2021/11/30 11:31:33;;;;;;;1.93;1.20;;;6.10;68.10;;;;;;4966420;28;20442;-51
2021/11/30 11:34:01;;;;;;;0.90;0.90;;;6.10;69.00;;;;;;4966131;28;20450;-52
2021/11/30 11:36:27;;;;;;;0.70;0.70;;;6.00;68.60;;;;;;4959308;28;21296;-52
2021/11/30 11:38:53;;;;;;;1.43;1.23;;;6.00;69.10;;;;;;4960831;28;20435;-52
2021/11/30 11:41:19;;;;;;;1.50;1.40;;;6.00;69.30;;;;;;4964631;28;20434;-51
2021/11/30 11:43:45;;;;;;;5.77;1.20;;;6.40;68.50;;;;;;4970479;28;20438;-51
2021/11/30 11:46:13;;;;;;;1.27;1.17;;;6.30;67.70;;;;;;4966577;28;20200;-51
2021/11/30 11:48:40;;;;;;;1.27;1.13;;;6.50;67.60;;;;;;4970315;28;20437;-49
2021/11/30 11:51:07;;;;;;;1.00;0.90;;;6.70;67.00;;;;;;4967780;28;20448;-51
2021/11/30 11:53:39;;;;;;;1.40;1.30;;;6.70;66.80;;;;;;4972223;28;20438;-51
2021/11/30 11:56:10;;;;;;;1.10;0.80;;;6.80;66.50;;;;;;4966449;28;21046;-53
2021/11/30 11:58:37;;;;;;;1.30;1.20;;;6.60;65.80;;;;;;4975259;28;20462;-55
2021/11/30 12:01:03;;;;;;;1.67;0.90;;;6.30;66.90;;;;;;4973476;28;20435;-51
2021/11/30 12:03:50;;;;;;;1.03;0.90;;;6.20;68.30;;;;;;4976317;28;20449;-52
2021/11/30 12:06:17;;;;;;;1.00;0.70;;;6.20;68.10;;;;;;4970530;28;20438;-51
2021/11/30 12:09:09;;;;;;;1.47;1.20;;;6.10;68.40;;;;;;4966198;28;20857;-54
2021/11/30 12:11:56;;;;;;;1.43;1.10;;;5.80;69.20;;;;;;4957564;28;20438;-52
2021/11/30 12:14:53;;;;;;;1.17;0.80;;;5.80;69.50;;;;;;4958790;28;20451;-53
2021/11/30 12:17:24;;;;;;;0.80;0.80;;;5.70;70.20;;;;;;4960279;28;20453;-51
2021/11/30 12:20:00;;;;;;;1.10;0.83;;;5.80;70.40;;;;;;4973585;28;20442;-51
2021/11/30 12:23:10;;;;;;;1.00;0.87;;;5.80;70.10;;;;;;4975525;28;20481;-55
2021/11/30 12:25:45;;;;;;;1.30;1.20;;;5.80;70.60;;;;;;4966495;28;20481;-50
2021/11/30 12:28:30;;;;;;;2.73;1.10;;;5.80;71.10;;;;;;4971110;28;20996;-50
2021/11/30 12:30:58;;;;;;;2.90;1.33;;;5.90;70.80;;;;;;4974303;28;20943;-52
2021/11/30 12:33:37;;;;;;;2.40;2.10;;;6.00;70.50;;;;;;4974148;28;20442;-50
2021/11/30 12:36:11;;;;;;;1.37;0.90;;;5.80;70.50;;;;;;4973359;28;20443;-51
2021/11/30 12:38:53;;;;;;;1.90;1.07;;;5.80;70.90;;;;;;4967819;28;20534;-53
2021/11/30 12:41:39;;;;;;;0.80;0.80;;;5.70;70.70;;;;;;4970049;28;20998;-51
2021/11/30 12:44:08;;;;;;;1.60;1.40;;;5.70;71.70;;;;;;4967486;28;20458;-51
2021/11/30 12:46:55;;;;;;;1.07;1.00;;;5.90;71.90;;;;;;4961936;28;20444;-49
2021/11/30 12:52:15;;;;;;;1.47;1.37;;;6.20;71.00;;;;;;4969853;28;20493;-49
2021/11/30 12:55:03;;;;;;;1.10;1.00;;;6.20;70.60;;;;;;4970017;28;20474;-49
2021/11/30 12:57:29;;;;;;;1.20;1.00;;;6.20;70.60;;;;;;4959865;28;20508;-50
2021/11/30 12:59:57;;;;;;;1.43;1.00;;;6.10;71.20;;;;;;4966924;28;20467;-49
2021/11/30 13:02:46;;;;;;;1.30;1.20;;;6.10;71.30;;;;;;4964607;28;20204;-48
2021/11/30 13:05:12;;;;;;;1.90;0.97;;;6.40;71.50;;;;;;4959321;28;20951;-48
2021/11/30 13:07:47;;;;;;;2.47;1.30;;;6.40;70.60;;;;;;4970916;28;20533;-49
2021/11/30 13:10:27;;;;;;;1.03;0.80;;;6.50;70.60;;;;;;4964467;28;20498;-50
2021/11/30 13:12:55;;;;;;;0.70;0.60;;;6.40;70.70;;;;;;4967192;28;20512;-51
2021/11/30 13:15:23;;;;;;;0.97;0.80;;;6.20;71.10;;;;;;4964691;28;20435;-48
2021/11/30 13:17:50;;;;;;;1.47;1.00;;;6.20;72.00;;;;;;4967712;28;20478;-48
2021/11/30 13:20:18;;;;;;;1.30;1.20;;;6.30;71.50;;;;;;4964736;28;20420;-49
2021/11/30 13:22:46;;;;;;;3.07;1.10;;;6.40;71.70;;;;;;4963800;28;20445;-48
2021/11/30 13:25:19;;;;;;;1.37;1.10;;;6.70;71.30;;;;;;4971061;28;20517;-49